sensor_id;sensor_type;location;lat;lon;timestamp;P1;durP1;ratioP1;P2;durP2;ratioP2
45676;SDS011;31390;51.186;6.830;2023-05-23T00:00:45;7.70;;;6.10;;
45676;SDS011;31390;51.186;6.830;2023-05-23T00:03:13;7.50;;;6.35;;
45676;SDS011;31390;51.186;6.830;2023-05-23T00:05:41;8.32;;;6.00;;
45676;SDS011;31390;51.186;6.830;2023-05-23T00:08:08;9.98;;;6.50;;
45676;SDS011;31390;51.186;6.830;2023-05-23T00:10:34;7.68;;;5.65;;
45676;SDS011;31390;51.186;6.830;2023-05-23T00:13:01;8.52;;;5.85;;
45676;SDS011;31390;51.186;6.830;2023-05-23T00:15:28;7.57;;;6.20;;
45676;SDS011;31390;51.186;6.830;2023-05-23T00:17:54;7.55;;;6.05;;
45676;SDS011;31390;51.186;6.830;2023-05-23T00:20:21;6.55;;;5.70;;
45676;SDS011;31390;51.186;6.830;2023-05-23T00:22:48;7.90;;;6.20;;
45676;SDS011;31390;51.186;6.830;2023-05-23T00:25:15;6.75;;;5.60;;
45676;SDS011;31390;51.186;6.830;2023-05-23T00:27:41;7.50;;;5.97;;
45676;SDS011;31390;51.186;6.830;2023-05-23T00:30:08;7.18;;;6.22;;
45676;SDS011;31390;51.186;6.830;2023-05-23T00:32:35;7.38;;;5.80;;
45676;SDS011;31390;51.186;6.830;2023-05-23T00:35:02;8.48;;;6.57;;
45676;SDS011;31390;51.186;6.830;2023-05-23T00:37:29;8.45;;;6.28;;
45676;SDS011;31390;51.186;6.830;2023-05-23T00:39:55;10.00;;;6.68;;
45676;SDS011;31390;51.186;6.830;2023-05-23T00:42:24;7.28;;;6.00;;
45676;SDS011;31390;51.186;6.830;2023-05-23T00:44:51;7.00;;;6.15;;
45676;SDS011;31390;51.186;6.830;2023-05-23T00:47:17;7.93;;;5.50;;
45676;SDS011;31390;51.186;6.830;2023-05-23T00:49:44;6.75;;;5.85;;
45676;SDS011;31390;51.186;6.830;2023-05-23T00:52:11;8.20;;;6.45;;
45676;SDS011;31390;51.186;6.830;2023-05-23T00:54:37;6.80;;;5.88;;
45676;SDS011;31390;51.186;6.830;2023-05-23T00:57:04;6.95;;;5.45;;
45676;SDS011;31390;51.186;6.830;2023-05-23T00:59:31;6.85;;;5.07;;
45676;SDS011;31390;51.186;6.830;2023-05-23T01:01:58;5.00;;;4.40;;
45676;SDS011;31390;51.186;6.830;2023-05-23T01:04:26;3.97;;;3.53;;
45676;SDS011;31390;51.186;6.830;2023-05-23T01:06:54;3.47;;;3.17;;
45676;SDS011;31390;51.186;6.830;2023-05-23T01:09:21;4.70;;;3.58;;
45676;SDS011;31390;51.186;6.830;2023-05-23T01:14:17;3.10;;;2.75;;
45676;SDS011;31390;51.186;6.830;2023-05-23T01:16:55;2.92;;;2.53;;
45676;SDS011;31390;51.186;6.830;2023-05-23T01:22:20;3.65;;;2.90;;
45676;SDS011;31390;51.186;6.830;2023-05-23T01:25:00;3.53;;;3.17;;
45676;SDS011;31390;51.186;6.830;2023-05-23T01:30:17;4.07;;;2.47;;
45676;SDS011;31390;51.186;6.830;2023-05-23T01:32:45;4.78;;;3.00;;
45676;SDS011;31390;51.186;6.830;2023-05-23T01:35:14;2.95;;;2.30;;
45676;SDS011;31390;51.186;6.830;2023-05-23T01:37:45;2.83;;;2.42;;
45676;SDS011;31390;51.186;6.830;2023-05-23T01:40:11;2.83;;;2.63;;
45676;SDS011;31390;51.186;6.830;2023-05-23T01:42:38;3.53;;;3.00;;
45676;SDS011;31390;51.186;6.830;2023-05-23T01:45:05;3.25;;;2.95;;
45676;SDS011;31390;51.186;6.830;2023-05-23T01:47:32;3.28;;;2.92;;
45676;SDS011;31390;51.186;6.830;2023-05-23T01:49:59;3.75;;;3.10;;
45676;SDS011;31390;51.186;6.830;2023-05-23T01:52:26;3.30;;;2.95;;
45676;SDS011;31390;51.186;6.830;2023-05-23T01:54:52;3.97;;;3.10;;
45676;SDS011;31390;51.186;6.830;2023-05-23T01:57:21;4.38;;;2.78;;
45676;SDS011;31390;51.186;6.830;2023-05-23T01:59:48;4.30;;;2.80;;
45676;SDS011;31390;51.186;6.830;2023-05-23T02:02:14;4.03;;;3.33;;
45676;SDS011;31390;51.186;6.830;2023-05-23T02:04:41;3.28;;;2.95;;
45676;SDS011;31390;51.186;6.830;2023-05-23T02:07:07;3.17;;;2.83;;
45676;SDS011;31390;51.186;6.830;2023-05-23T02:09:34;3.30;;;3.00;;
45676;SDS011;31390;51.186;6.830;2023-05-23T02:12:01;4.30;;;3.45;;
45676;SDS011;31390;51.186;6.830;2023-05-23T02:14:27;3.75;;;3.33;;
45676;SDS011;31390;51.186;6.830;2023-05-23T02:16:54;3.55;;;3.22;;
45676;SDS011;31390;51.186;6.830;2023-05-23T02:19:21;3.50;;;3.17;;
45676;SDS011;31390;51.186;6.830;2023-05-23T02:21:47;4.18;;;3.05;;
45676;SDS011;31390;51.186;6.830;2023-05-23T02:24:14;3.85;;;3.50;;
45676;SDS011;31390;51.186;6.830;2023-05-23T02:26:43;3.45;;;2.90;;
45676;SDS011;31390;51.186;6.830;2023-05-23T02:29:09;3.60;;;3.20;;
45676;SDS011;31390;51.186;6.830;2023-05-23T02:31:36;4.35;;;3.50;;
45676;SDS011;31390;51.186;6.830;2023-05-23T02:34:03;3.50;;;3.10;;
45676;SDS011;31390;51.186;6.830;2023-05-23T02:36:30;6.43;;;3.33;;
45676;SDS011;31390;51.186;6.830;2023-05-23T02:38:59;3.88;;;3.33;;
45676;SDS011;31390;51.186;6.830;2023-05-23T02:41:25;4.65;;;3.50;;
45676;SDS011;31390;51.186;6.830;2023-05-23T02:43:52;3.67;;;2.92;;
45676;SDS011;31390;51.186;6.830;2023-05-23T02:46:19;4.00;;;3.55;;
45676;SDS011;31390;51.186;6.830;2023-05-23T02:48:46;4.93;;;3.95;;
45676;SDS011;31390;51.186;6.830;2023-05-23T02:51:13;3.75;;;3.35;;
45676;SDS011;31390;51.186;6.830;2023-05-23T02:53:40;3.92;;;3.45;;
45676;SDS011;31390;51.186;6.830;2023-05-23T02:56:07;4.18;;;3.50;;
45676;SDS011;31390;51.186;6.830;2023-05-23T02:58:35;4.15;;;3.75;;
45676;SDS011;31390;51.186;6.830;2023-05-23T03:01:02;4.90;;;3.42;;
45676;SDS011;31390;51.186;6.830;2023-05-23T03:03:32;3.58;;;3.13;;
45676;SDS011;31390;51.186;6.830;2023-05-23T03:06:00;5.47;;;3.53;;
45676;SDS011;31390;51.186;6.830;2023-05-23T03:08:27;5.63;;;3.90;;
45676;SDS011;31390;51.186;6.830;2023-05-23T03:10:53;7.10;;;4.00;;
45676;SDS011;31390;51.186;6.830;2023-05-23T03:13:20;4.00;;;3.60;;
45676;SDS011;31390;51.186;6.830;2023-05-23T03:15:47;5.45;;;4.05;;
45676;SDS011;31390;51.186;6.830;2023-05-23T03:18:14;6.97;;;4.00;;
45676;SDS011;31390;51.186;6.830;2023-05-23T03:20:41;5.10;;;4.05;;
45676;SDS011;31390;51.186;6.830;2023-05-23T03:23:08;6.38;;;4.47;;
45676;SDS011;31390;51.186;6.830;2023-05-23T03:25:34;5.55;;;4.55;;
45676;SDS011;31390;51.186;6.830;2023-05-23T03:28:01;5.97;;;4.50;;
45676;SDS011;31390;51.186;6.830;2023-05-23T03:30:28;8.38;;;4.55;;
45676;SDS011;31390;51.186;6.830;2023-05-23T03:32:54;5.00;;;4.15;;
45676;SDS011;31390;51.186;6.830;2023-05-23T03:35:21;5.85;;;4.47;;
45676;SDS011;31390;51.186;6.830;2023-05-23T03:37:48;6.82;;;4.65;;
45676;SDS011;31390;51.186;6.830;2023-05-23T03:40:14;5.07;;;4.18;;
45676;SDS011;31390;51.186;6.830;2023-05-23T03:42:41;4.82;;;4.00;;
45676;SDS011;31390;51.186;6.830;2023-05-23T03:45:08;5.18;;;3.90;;
45676;SDS011;31390;51.186;6.830;2023-05-23T03:47:35;6.78;;;4.20;;
45676;SDS011;31390;51.186;6.830;2023-05-23T03:50:02;4.63;;;4.03;;
45676;SDS011;31390;51.186;6.830;2023-05-23T03:52:29;4.78;;;3.75;;
45676;SDS011;31390;51.186;6.830;2023-05-23T03:54:56;3.97;;;3.58;;
45676;SDS011;31390;51.186;6.830;2023-05-23T03:57:24;4.07;;;3.35;;
45676;SDS011;31390;51.186;6.830;2023-05-23T03:59:50;4.40;;;3.17;;
45676;SDS011;31390;51.186;6.830;2023-05-23T04:02:18;4.43;;;3.38;;
45676;SDS011;31390;51.186;6.830;2023-05-23T04:04:45;4.45;;;3.38;;
45676;SDS011;31390;51.186;6.830;2023-05-23T04:07:13;4.57;;;3.45;;
45676;SDS011;31390;51.186;6.830;2023-05-23T04:09:42;4.75;;;3.67;;
45676;SDS011;31390;51.186;6.830;2023-05-23T04:12:10;4.35;;;3.40;;
45676;SDS011;31390;51.186;6.830;2023-05-23T04:14:37;4.78;;;3.30;;
45676;SDS011;31390;51.186;6.830;2023-05-23T04:17:05;5.03;;;4.10;;
45676;SDS011;31390;51.186;6.830;2023-05-23T04:19:34;4.93;;;3.55;;
45676;SDS011;31390;51.186;6.830;2023-05-23T04:22:01;4.70;;;3.58;;
45676;SDS011;31390;51.186;6.830;2023-05-23T04:24:27;4.80;;;3.65;;
45676;SDS011;31390;51.186;6.830;2023-05-23T04:26:54;5.03;;;4.00;;
45676;SDS011;31390;51.186;6.830;2023-05-23T04:29:22;4.45;;;3.88;;
45676;SDS011;31390;51.186;6.830;2023-05-23T04:31:50;5.53;;;3.88;;
45676;SDS011;31390;51.186;6.830;2023-05-23T04:34:17;5.95;;;4.38;;
45676;SDS011;31390;51.186;6.830;2023-05-23T04:36:44;4.13;;;3.70;;
45676;SDS011;31390;51.186;6.830;2023-05-23T04:39:11;6.45;;;4.25;;
45676;SDS011;31390;51.186;6.830;2023-05-23T04:41:45;7.43;;;4.28;;
45676;SDS011;31390;51.186;6.830;2023-05-23T04:44:24;6.88;;;4.57;;
45676;SDS011;31390;51.186;6.830;2023-05-23T04:47:08;6.97;;;4.43;;
45676;SDS011;31390;51.186;6.830;2023-05-23T04:50:10;5.05;;;4.47;;
45676;SDS011;31390;51.186;6.830;2023-05-23T04:52:36;4.60;;;3.78;;
45676;SDS011;31390;51.186;6.830;2023-05-23T04:55:03;7.22;;;4.22;;
45676;SDS011;31390;51.186;6.830;2023-05-23T04:57:30;6.88;;;4.15;;
45676;SDS011;31390;51.186;6.830;2023-05-23T04:59:59;5.10;;;4.05;;
45676;SDS011;31390;51.186;6.830;2023-05-23T05:02:27;4.57;;;4.10;;
45676;SDS011;31390;51.186;6.830;2023-05-23T05:04:59;5.68;;;3.97;;
45676;SDS011;31390;51.186;6.830;2023-05-23T05:07:26;4.82;;;3.92;;
45676;SDS011;31390;51.186;6.830;2023-05-23T05:09:52;4.97;;;4.20;;
45676;SDS011;31390;51.186;6.830;2023-05-23T05:12:19;5.32;;;4.00;;
45676;SDS011;31390;51.186;6.830;2023-05-23T05:14:49;7.00;;;5.13;;
45676;SDS011;31390;51.186;6.830;2023-05-23T05:17:20;5.28;;;4.47;;
45676;SDS011;31390;51.186;6.830;2023-05-23T05:20:02;5.80;;;5.18;;
45676;SDS011;31390;51.186;6.830;2023-05-23T05:22:38;5.22;;;4.15;;
45676;SDS011;31390;51.186;6.830;2023-05-23T05:25:10;7.30;;;4.57;;
45676;SDS011;31390;51.186;6.830;2023-05-23T05:27:38;6.90;;;4.57;;
45676;SDS011;31390;51.186;6.830;2023-05-23T05:30:07;7.03;;;5.03;;
45676;SDS011;31390;51.186;6.830;2023-05-23T05:32:56;5.55;;;4.60;;
45676;SDS011;31390;51.186;6.830;2023-05-23T05:35:23;6.10;;;4.97;;
45676;SDS011;31390;51.186;6.830;2023-05-23T05:37:50;5.40;;;4.53;;
45676;SDS011;31390;51.186;6.830;2023-05-23T05:40:17;8.02;;;4.97;;
45676;SDS011;31390;51.186;6.830;2023-05-23T05:42:44;6.40;;;5.28;;
45676;SDS011;31390;51.186;6.830;2023-05-23T05:45:10;6.20;;;5.03;;
45676;SDS011;31390;51.186;6.830;2023-05-23T05:47:38;7.20;;;5.03;;
45676;SDS011;31390;51.186;6.830;2023-05-23T05:50:05;7.28;;;4.82;;
45676;SDS011;31390;51.186;6.830;2023-05-23T05:52:33;5.25;;;4.43;;
45676;SDS011;31390;51.186;6.830;2023-05-23T05:55:05;6.57;;;5.10;;
45676;SDS011;31390;51.186;6.830;2023-05-23T05:57:33;7.75;;;4.97;;
45676;SDS011;31390;51.186;6.830;2023-05-23T06:00:00;9.95;;;5.50;;
45676;SDS011;31390;51.186;6.830;2023-05-23T06:02:37;7.68;;;5.22;;
45676;SDS011;31390;51.186;6.830;2023-05-23T06:05:04;8.45;;;5.68;;
45676;SDS011;31390;51.186;6.830;2023-05-23T06:07:33;7.90;;;5.68;;
45676;SDS011;31390;51.186;6.830;2023-05-23T06:10:01;6.68;;;5.07;;
45676;SDS011;31390;51.186;6.830;2023-05-23T06:12:28;8.38;;;5.78;;
45676;SDS011;31390;51.186;6.830;2023-05-23T06:14:55;7.55;;;5.18;;
45676;SDS011;31390;51.186;6.830;2023-05-23T06:17:21;5.95;;;4.57;;
45676;SDS011;31390;51.186;6.830;2023-05-23T06:19:48;7.15;;;5.00;;
45676;SDS011;31390;51.186;6.830;2023-05-23T06:22:15;7.88;;;5.28;;
45676;SDS011;31390;51.186;6.830;2023-05-23T06:24:42;7.15;;;4.78;;
45676;SDS011;31390;51.186;6.830;2023-05-23T06:27:08;5.18;;;4.47;;
45676;SDS011;31390;51.186;6.830;2023-05-23T06:29:35;7.55;;;4.88;;
45676;SDS011;31390;51.186;6.830;2023-05-23T06:32:02;8.32;;;4.88;;
45676;SDS011;31390;51.186;6.830;2023-05-23T06:34:29;7.95;;;5.28;;
45676;SDS011;31390;51.186;6.830;2023-05-23T06:36:56;6.10;;;5.05;;
45676;SDS011;31390;51.186;6.830;2023-05-23T06:39:22;7.53;;;5.70;;
45676;SDS011;31390;51.186;6.830;2023-05-23T06:41:49;8.65;;;5.72;;
45676;SDS011;31390;51.186;6.830;2023-05-23T06:44:16;6.13;;;5.13;;
45676;SDS011;31390;51.186;6.830;2023-05-23T06:46:46;6.88;;;4.80;;
45676;SDS011;31390;51.186;6.830;2023-05-23T06:49:13;7.20;;;5.28;;
45676;SDS011;31390;51.186;6.830;2023-05-23T06:51:42;7.05;;;4.50;;
45676;SDS011;31390;51.186;6.830;2023-05-23T06:54:10;5.72;;;4.25;;
45676;SDS011;31390;51.186;6.830;2023-05-23T06:56:36;4.97;;;4.43;;
45676;SDS011;31390;51.186;6.830;2023-05-23T06:59:03;6.22;;;4.50;;
45676;SDS011;31390;51.186;6.830;2023-05-23T07:01:30;6.20;;;4.63;;
45676;SDS011;31390;51.186;6.830;2023-05-23T07:03:57;4.68;;;3.90;;
45676;SDS011;31390;51.186;6.830;2023-05-23T07:06:24;5.32;;;4.60;;
45676;SDS011;31390;51.186;6.830;2023-05-23T07:08:51;7.13;;;5.00;;
45676;SDS011;31390;51.186;6.830;2023-05-23T07:11:20;5.20;;;3.95;;
45676;SDS011;31390;51.186;6.830;2023-05-23T07:13:52;5.00;;;4.18;;
45676;SDS011;31390;51.186;6.830;2023-05-23T07:16:29;5.50;;;4.38;;
45676;SDS011;31390;51.186;6.830;2023-05-23T07:19:01;5.47;;;4.45;;
45676;SDS011;31390;51.186;6.830;2023-05-23T07:21:29;6.57;;;4.72;;
45676;SDS011;31390;51.186;6.830;2023-05-23T07:23:57;6.85;;;4.72;;
45676;SDS011;31390;51.186;6.830;2023-05-23T07:26:23;6.68;;;5.10;;
45676;SDS011;31390;51.186;6.830;2023-05-23T07:28:54;5.88;;;4.40;;
45676;SDS011;31390;51.186;6.830;2023-05-23T07:31:21;7.30;;;4.88;;
45676;SDS011;31390;51.186;6.830;2023-05-23T07:33:50;6.70;;;4.78;;
45676;SDS011;31390;51.186;6.830;2023-05-23T07:36:26;5.80;;;4.45;;
45676;SDS011;31390;51.186;6.830;2023-05-23T07:38:54;6.88;;;4.57;;
45676;SDS011;31390;51.186;6.830;2023-05-23T07:41:21;7.18;;;5.03;;
45676;SDS011;31390;51.186;6.830;2023-05-23T07:43:48;5.70;;;4.50;;
45676;SDS011;31390;51.186;6.830;2023-05-23T07:46:15;4.88;;;4.38;;
45676;SDS011;31390;51.186;6.830;2023-05-23T07:48:42;5.38;;;4.20;;
45676;SDS011;31390;51.186;6.830;2023-05-23T07:51:10;6.03;;;4.03;;
45676;SDS011;31390;51.186;6.830;2023-05-23T07:53:37;6.68;;;4.45;;
45676;SDS011;31390;51.186;6.830;2023-05-23T07:56:09;4.25;;;3.85;;
45676;SDS011;31390;51.186;6.830;2023-05-23T07:58:38;6.75;;;4.25;;
45676;SDS011;31390;51.186;6.830;2023-05-23T08:01:05;6.07;;;4.03;;
45676;SDS011;31390;51.186;6.830;2023-05-23T08:04:05;6.68;;;4.15;;
45676;SDS011;31390;51.186;6.830;2023-05-23T08:06:52;6.85;;;4.47;;
45676;SDS011;31390;51.186;6.830;2023-05-23T08:09:51;7.35;;;5.03;;
45676;SDS011;31390;51.186;6.830;2023-05-23T08:12:21;7.35;;;4.88;;
45676;SDS011;31390;51.186;6.830;2023-05-23T08:14:55;7.93;;;4.60;;
45676;SDS011;31390;51.186;6.830;2023-05-23T08:17:26;7.25;;;4.88;;
45676;SDS011;31390;51.186;6.830;2023-05-23T08:19:53;7.93;;;4.97;;
45676;SDS011;31390;51.186;6.830;2023-05-23T08:22:21;7.50;;;5.00;;
45676;SDS011;31390;51.186;6.830;2023-05-23T08:24:47;7.95;;;4.93;;
45676;SDS011;31390;51.186;6.830;2023-05-23T08:27:14;9.27;;;4.35;;
45676;SDS011;31390;51.186;6.830;2023-05-23T08:29:41;6.50;;;4.75;;
45676;SDS011;31390;51.186;6.830;2023-05-23T08:32:08;6.10;;;4.57;;
45676;SDS011;31390;51.186;6.830;2023-05-23T08:34:35;5.93;;;4.35;;
45676;SDS011;31390;51.186;6.830;2023-05-23T08:37:02;6.57;;;4.38;;
45676;SDS011;31390;51.186;6.830;2023-05-23T08:39:31;10.57;;;7.35;;
45676;SDS011;31390;51.186;6.830;2023-05-23T08:42:17;10.05;;;5.93;;
45676;SDS011;31390;51.186;6.830;2023-05-23T08:44:44;9.40;;;6.13;;
45676;SDS011;31390;51.186;6.830;2023-05-23T08:47:11;7.57;;;6.40;;
45676;SDS011;31390;51.186;6.830;2023-05-23T08:49:53;8.10;;;7.30;;
45676;SDS011;31390;51.186;6.830;2023-05-23T08:52:21;12.15;;;9.52;;
45676;SDS011;31390;51.186;6.830;2023-05-23T08:54:52;11.40;;;7.72;;
45676;SDS011;31390;51.186;6.830;2023-05-23T08:57:19;12.40;;;9.77;;
45676;SDS011;31390;51.186;6.830;2023-05-23T08:59:51;16.00;;;9.65;;
45676;SDS011;31390;51.186;6.830;2023-05-23T09:02:19;10.05;;;8.18;;
45676;SDS011;31390;51.186;6.830;2023-05-23T09:04:47;13.93;;;9.88;;
45676;SDS011;31390;51.186;6.830;2023-05-23T09:07:19;17.38;;;13.05;;
45676;SDS011;31390;51.186;6.830;2023-05-23T09:09:47;18.55;;;12.07;;
45676;SDS011;31390;51.186;6.830;2023-05-23T09:12:15;13.35;;;11.02;;
45676;SDS011;31390;51.186;6.830;2023-05-23T09:14:44;10.95;;;8.48;;
45676;SDS011;31390;51.186;6.830;2023-05-23T09:17:14;14.25;;;10.60;;
45676;SDS011;31390;51.186;6.830;2023-05-23T09:19:41;15.75;;;11.80;;
45676;SDS011;31390;51.186;6.830;2023-05-23T09:22:35;16.17;;;11.57;;
45676;SDS011;31390;51.186;6.830;2023-05-23T09:25:07;11.68;;;8.30;;
45676;SDS011;31390;51.186;6.830;2023-05-23T09:27:36;9.35;;;6.78;;
45676;SDS011;31390;51.186;6.830;2023-05-23T09:30:06;9.75;;;7.40;;
45676;SDS011;31390;51.186;6.830;2023-05-23T09:32:33;11.95;;;9.10;;
45676;SDS011;31390;51.186;6.830;2023-05-23T09:35:02;15.07;;;9.93;;
45676;SDS011;31390;51.186;6.830;2023-05-23T09:37:33;12.38;;;7.82;;
45676;SDS011;31390;51.186;6.830;2023-05-23T09:40:01;10.45;;;8.30;;
45676;SDS011;31390;51.186;6.830;2023-05-23T09:42:32;11.65;;;8.63;;
45676;SDS011;31390;51.186;6.830;2023-05-23T09:45:01;7.65;;;6.68;;
45676;SDS011;31390;51.186;6.830;2023-05-23T09:47:30;7.88;;;6.05;;
45676;SDS011;31390;51.186;6.830;2023-05-23T09:49:57;7.38;;;4.72;;
45676;SDS011;31390;51.186;6.830;2023-05-23T09:52:23;6.72;;;5.05;;
45676;SDS011;31390;51.186;6.830;2023-05-23T09:54:50;8.43;;;5.70;;
45676;SDS011;31390;51.186;6.830;2023-05-23T09:57:17;8.80;;;6.55;;
45676;SDS011;31390;51.186;6.830;2023-05-23T09:59:48;11.85;;;7.95;;
45676;SDS011;31390;51.186;6.830;2023-05-23T10:02:18;12.07;;;6.40;;
45676;SDS011;31390;51.186;6.830;2023-05-23T10:04:50;11.70;;;6.50;;
45676;SDS011;31390;51.186;6.830;2023-05-23T10:07:19;11.68;;;8.02;;
45676;SDS011;31390;51.186;6.830;2023-05-23T10:09:54;7.70;;;6.68;;
45676;SDS011;31390;51.186;6.830;2023-05-23T10:15:03;12.70;;;7.88;;
45676;SDS011;31390;51.186;6.830;2023-05-23T10:19:58;7.90;;;6.00;;
45676;SDS011;31390;51.186;6.830;2023-05-23T10:22:26;8.25;;;6.45;;
45676;SDS011;31390;51.186;6.830;2023-05-23T10:24:52;9.90;;;7.90;;
45676;SDS011;31390;51.186;6.830;2023-05-23T10:27:19;11.02;;;7.53;;
45676;SDS011;31390;51.186;6.830;2023-05-23T10:29:46;10.18;;;7.38;;
45676;SDS011;31390;51.186;6.830;2023-05-23T10:32:13;7.97;;;6.60;;
45676;SDS011;31390;51.186;6.830;2023-05-23T10:34:55;8.63;;;6.10;;
45676;SDS011;31390;51.186;6.830;2023-05-23T10:37:28;12.05;;;8.95;;
45676;SDS011;31390;51.186;6.830;2023-05-23T10:39:58;19.83;;;13.32;;
45676;SDS011;31390;51.186;6.830;2023-05-23T10:43:15;19.52;;;14.05;;
45676;SDS011;31390;51.186;6.830;2023-05-23T10:45:22;17.55;;;10.57;;
45676;SDS011;31390;51.186;6.830;2023-05-23T10:47:50;13.23;;;9.00;;
45676;SDS011;31390;51.186;6.830;2023-05-23T10:53:00;7.82;;;5.20;;
45676;SDS011;31390;51.186;6.830;2023-05-23T10:55:31;5.57;;;4.78;;
45676;SDS011;31390;51.186;6.830;2023-05-23T10:58:11;6.55;;;4.07;;
45676;SDS011;31390;51.186;6.830;2023-05-23T11:00:38;7.88;;;4.57;;
45676;SDS011;31390;51.186;6.830;2023-05-23T11:03:05;5.93;;;4.50;;
45676;SDS011;31390;51.186;6.830;2023-05-23T11:05:34;4.60;;;3.90;;
45676;SDS011;31390;51.186;6.830;2023-05-23T11:08:07;7.72;;;4.22;;
45676;SDS011;31390;51.186;6.830;2023-05-23T11:13:20;8.70;;;6.32;;
45676;SDS011;31390;51.186;6.830;2023-05-23T11:15:47;8.52;;;7.00;;
45676;SDS011;31390;51.186;6.830;2023-05-23T11:18:21;11.05;;;7.07;;
45676;SDS011;31390;51.186;6.830;2023-05-23T11:20:48;9.27;;;7.22;;
45676;SDS011;31390;51.186;6.830;2023-05-23T11:23:18;9.40;;;7.10;;
45676;SDS011;31390;51.186;6.830;2023-05-23T11:25:49;10.55;;;7.63;;
45676;SDS011;31390;51.186;6.830;2023-05-23T11:28:16;10.00;;;8.57;;
45676;SDS011;31390;51.186;6.830;2023-05-23T11:30:43;10.23;;;7.80;;
45676;SDS011;31390;51.186;6.830;2023-05-23T11:33:13;8.55;;;6.28;;
45676;SDS011;31390;51.186;6.830;2023-05-23T11:35:44;7.97;;;5.97;;
45676;SDS011;31390;51.186;6.830;2023-05-23T11:38:11;8.90;;;6.18;;
45676;SDS011;31390;51.186;6.830;2023-05-23T11:40:39;5.72;;;4.80;;
45676;SDS011;31390;51.186;6.830;2023-05-23T11:43:08;6.55;;;4.55;;
45676;SDS011;31390;51.186;6.830;2023-05-23T11:45:37;6.20;;;5.13;;
45676;SDS011;31390;51.186;6.830;2023-05-23T11:48:10;10.60;;;5.80;;
45676;SDS011;31390;51.186;6.830;2023-05-23T11:50:45;6.30;;;3.75;;
45676;SDS011;31390;51.186;6.830;2023-05-23T11:53:12;4.88;;;3.50;;
45676;SDS011;31390;51.186;6.830;2023-05-23T11:55:39;7.15;;;3.47;;
45676;SDS011;31390;51.186;6.830;2023-05-23T11:58:06;4.47;;;3.70;;
45676;SDS011;31390;51.186;6.830;2023-05-23T12:00:33;6.32;;;3.90;;
45676;SDS011;31390;51.186;6.830;2023-05-23T12:03:02;7.30;;;4.85;;
45676;SDS011;31390;51.186;6.830;2023-05-23T12:05:31;7.15;;;5.20;;
45676;SDS011;31390;51.186;6.830;2023-05-23T12:07:58;7.35;;;5.22;;
45676;SDS011;31390;51.186;6.830;2023-05-23T12:10:25;6.43;;;4.57;;
45676;SDS011;31390;51.186;6.830;2023-05-23T12:12:53;6.85;;;4.22;;
45676;SDS011;31390;51.186;6.830;2023-05-23T12:15:23;5.80;;;3.80;;
45676;SDS011;31390;51.186;6.830;2023-05-23T12:17:52;6.22;;;4.95;;
45676;SDS011;31390;51.186;6.830;2023-05-23T12:20:19;7.55;;;4.63;;
45676;SDS011;31390;51.186;6.830;2023-05-23T12:22:46;8.02;;;5.22;;
45676;SDS011;31390;51.186;6.830;2023-05-23T12:25:13;5.50;;;4.78;;
45676;SDS011;31390;51.186;6.830;2023-05-23T12:27:39;8.65;;;5.60;;
45676;SDS011;31390;51.186;6.830;2023-05-23T12:30:12;8.77;;;5.72;;
45676;SDS011;31390;51.186;6.830;2023-05-23T12:32:39;8.40;;;4.05;;
45676;SDS011;31390;51.186;6.830;2023-05-23T12:35:10;5.20;;;3.90;;
45676;SDS011;31390;51.186;6.830;2023-05-23T12:37:40;7.55;;;3.95;;
45676;SDS011;31390;51.186;6.830;2023-05-23T12:40:15;5.40;;;3.53;;
45676;SDS011;31390;51.186;6.830;2023-05-23T12:42:48;4.13;;;3.42;;
45676;SDS011;31390;51.186;6.830;2023-05-23T12:45:15;5.65;;;3.63;;
45676;SDS011;31390;51.186;6.830;2023-05-23T12:47:41;5.38;;;3.70;;
45676;SDS011;31390;51.186;6.830;2023-05-23T12:50:11;7.65;;;5.35;;
45676;SDS011;31390;51.186;6.830;2023-05-23T12:52:38;7.47;;;5.80;;
45676;SDS011;31390;51.186;6.830;2023-05-23T12:55:07;10.38;;;6.55;;
45676;SDS011;31390;51.186;6.830;2023-05-23T12:57:34;9.27;;;6.97;;
45676;SDS011;31390;51.186;6.830;2023-05-23T13:00:01;12.00;;;6.28;;
45676;SDS011;31390;51.186;6.830;2023-05-23T13:02:27;9.35;;;7.25;;
45676;SDS011;31390;51.186;6.830;2023-05-23T13:04:54;8.98;;;7.03;;
45676;SDS011;31390;51.186;6.830;2023-05-23T13:07:22;9.23;;;6.70;;
45676;SDS011;31390;51.186;6.830;2023-05-23T13:09:49;8.30;;;5.90;;
45676;SDS011;31390;51.186;6.830;2023-05-23T13:12:15;7.03;;;6.13;;
45676;SDS011;31390;51.186;6.830;2023-05-23T13:14:42;8.23;;;6.13;;
45676;SDS011;31390;51.186;6.830;2023-05-23T13:17:08;8.77;;;5.72;;
45676;SDS011;31390;51.186;6.830;2023-05-23T13:19:35;7.05;;;6.38;;
45676;SDS011;31390;51.186;6.830;2023-05-23T13:22:02;10.15;;;7.18;;
45676;SDS011;31390;51.186;6.830;2023-05-23T13:24:30;9.35;;;6.43;;
45676;SDS011;31390;51.186;6.830;2023-05-23T13:26:56;8.50;;;7.07;;
45676;SDS011;31390;51.186;6.830;2023-05-23T13:29:23;9.25;;;7.60;;
45676;SDS011;31390;51.186;6.830;2023-05-23T13:31:49;12.75;;;8.57;;
45676;SDS011;31390;51.186;6.830;2023-05-23T13:34:17;8.07;;;6.43;;
45676;SDS011;31390;51.186;6.830;2023-05-23T13:36:43;9.25;;;6.45;;
45676;SDS011;31390;51.186;6.830;2023-05-23T13:39:10;5.95;;;5.35;;
45676;SDS011;31390;51.186;6.830;2023-05-23T13:41:37;9.25;;;6.93;;
45676;SDS011;31390;51.186;6.830;2023-05-23T13:44:03;10.68;;;7.65;;
45676;SDS011;31390;51.186;6.830;2023-05-23T13:46:30;8.15;;;5.28;;
45676;SDS011;31390;51.186;6.830;2023-05-23T13:48:56;7.00;;;5.35;;
45676;SDS011;31390;51.186;6.830;2023-05-23T13:51:23;7.75;;;5.32;;
45676;SDS011;31390;51.186;6.830;2023-05-23T13:53:50;5.70;;;4.20;;
45676;SDS011;31390;51.186;6.830;2023-05-23T13:56:17;5.00;;;3.47;;
45676;SDS011;31390;51.186;6.830;2023-05-23T13:58:44;6.28;;;4.50;;
45676;SDS011;31390;51.186;6.830;2023-05-23T14:01:11;10.30;;;6.82;;
45676;SDS011;31390;51.186;6.830;2023-05-23T14:03:38;6.45;;;5.18;;
45676;SDS011;31390;51.186;6.830;2023-05-23T14:06:05;6.50;;;5.30;;
45676;SDS011;31390;51.186;6.830;2023-05-23T14:08:31;6.88;;;6.00;;
45676;SDS011;31390;51.186;6.830;2023-05-23T14:10:58;9.07;;;6.35;;
45676;SDS011;31390;51.186;6.830;2023-05-23T14:13:24;5.28;;;4.53;;
45676;SDS011;31390;51.186;6.830;2023-05-23T14:15:51;5.25;;;3.03;;
45676;SDS011;31390;51.186;6.830;2023-05-23T14:18:19;4.53;;;3.28;;
45676;SDS011;31390;51.186;6.830;2023-05-23T14:20:46;4.97;;;2.65;;
45676;SDS011;31390;51.186;6.830;2023-05-23T14:23:12;6.90;;;2.85;;
45676;SDS011;31390;51.186;6.830;2023-05-23T14:25:39;5.93;;;2.90;;
45676;SDS011;31390;51.186;6.830;2023-05-23T14:28:06;4.88;;;3.55;;
45676;SDS011;31390;51.186;6.830;2023-05-23T14:30:32;5.97;;;4.10;;
45676;SDS011;31390;51.186;6.830;2023-05-23T14:32:59;7.22;;;4.28;;
45676;SDS011;31390;51.186;6.830;2023-05-23T14:35:26;6.10;;;4.85;;
45676;SDS011;31390;51.186;6.830;2023-05-23T14:37:54;5.82;;;4.35;;
45676;SDS011;31390;51.186;6.830;2023-05-23T14:40:21;8.18;;;5.30;;
45676;SDS011;31390;51.186;6.830;2023-05-23T14:42:47;8.07;;;5.40;;
45676;SDS011;31390;51.186;6.830;2023-05-23T14:45:14;8.02;;;5.70;;
45676;SDS011;31390;51.186;6.830;2023-05-23T14:47:44;5.47;;;3.50;;
45676;SDS011;31390;51.186;6.830;2023-05-23T14:50:10;4.78;;;3.28;;
45676;SDS011;31390;51.186;6.830;2023-05-23T14:52:37;4.25;;;2.58;;
45676;SDS011;31390;51.186;6.830;2023-05-23T14:55:05;5.50;;;2.60;;
45676;SDS011;31390;51.186;6.830;2023-05-23T14:57:32;3.05;;;2.25;;
45676;SDS011;31390;51.186;6.830;2023-05-23T14:59:58;3.45;;;2.33;;
45676;SDS011;31390;51.186;6.830;2023-05-23T15:02:25;3.40;;;2.33;;
45676;SDS011;31390;51.186;6.830;2023-05-23T15:04:54;3.35;;;2.42;;
45676;SDS011;31390;51.186;6.830;2023-05-23T15:07:20;5.85;;;3.00;;
45676;SDS011;31390;51.186;6.830;2023-05-23T15:09:47;6.00;;;3.15;;
45676;SDS011;31390;51.186;6.830;2023-05-23T15:12:14;5.65;;;2.20;;